sensor_id;sensor_type;location;lat;lon;timestamp;P1;durP1;ratioP1;P2;durP2;ratioP2
60665;SDS011;59128;44.642;21.188;2023-08-30T00:01:38;9.35;;;6.97;;
60665;SDS011;59128;44.642;21.188;2023-08-30T00:04:04;8.10;;;7.38;;
60665;SDS011;59128;44.642;21.188;2023-08-30T00:06:30;8.50;;;6.90;;
60665;SDS011;59128;44.642;21.188;2023-08-30T00:08:57;9.83;;;7.20;;
60665;SDS011;59128;44.642;21.188;2023-08-30T00:11:23;8.27;;;7.38;;
60665;SDS011;59128;44.642;21.188;2023-08-30T00:13:49;10.95;;;8.10;;
60665;SDS011;59128;44.642;21.188;2023-08-30T00:16:15;12.32;;;8.35;;
60665;SDS011;59128;44.642;21.188;2023-08-30T00:18:42;10.68;;;8.30;;
60665;SDS011;59128;44.642;21.188;2023-08-30T00:21:09;10.82;;;8.27;;
60665;SDS011;59128;44.642;21.188;2023-08-30T00:23:35;11.73;;;8.10;;
60665;SDS011;59128;44.642;21.188;2023-08-30T00:26:01;12.43;;;8.27;;
60665;SDS011;59128;44.642;21.188;2023-08-30T00:28:27;12.13;;;9.07;;
60665;SDS011;59128;44.642;21.188;2023-08-30T00:30:54;10.70;;;8.18;;
60665;SDS011;59128;44.642;21.188;2023-08-30T00:33:20;11.93;;;8.77;;
60665;SDS011;59128;44.642;21.188;2023-08-30T00:35:46;10.63;;;8.20;;
60665;SDS011;59128;44.642;21.188;2023-08-30T00:38:12;10.57;;;8.55;;
60665;SDS011;59128;44.642;21.188;2023-08-30T00:40:39;11.68;;;9.07;;
60665;SDS011;59128;44.642;21.188;2023-08-30T00:43:06;12.20;;;8.47;;
60665;SDS011;59128;44.642;21.188;2023-08-30T00:45:32;11.00;;;7.97;;
60665;SDS011;59128;44.642;21.188;2023-08-30T00:47:58;11.75;;;8.02;;
60665;SDS011;59128;44.642;21.188;2023-08-30T00:50:24;10.48;;;8.30;;
60665;SDS011;59128;44.642;21.188;2023-08-30T00:52:50;11.55;;;8.95;;
60665;SDS011;59128;44.642;21.188;2023-08-30T00:55:16;13.45;;;8.65;;
60665;SDS011;59128;44.642;21.188;2023-08-30T00:57:43;11.07;;;8.25;;
60665;SDS011;59128;44.642;21.188;2023-08-30T01:00:09;11.93;;;8.68;;
60665;SDS011;59128;44.642;21.188;2023-08-30T01:02:35;10.30;;;8.47;;
60665;SDS011;59128;44.642;21.188;2023-08-30T01:05:02;11.00;;;8.98;;
60665;SDS011;59128;44.642;21.188;2023-08-30T01:07:28;13.00;;;9.10;;
60665;SDS011;59128;44.642;21.188;2023-08-30T01:09:54;10.82;;;8.90;;
60665;SDS011;59128;44.642;21.188;2023-08-30T01:12:22;11.60;;;8.85;;
60665;SDS011;59128;44.642;21.188;2023-08-30T01:15:07;10.38;;;8.57;;
60665;SDS011;59128;44.642;21.188;2023-08-30T01:17:35;10.70;;;8.00;;
60665;SDS011;59128;44.642;21.188;2023-08-30T01:20:05;12.52;;;8.27;;
60665;SDS011;59128;44.642;21.188;2023-08-30T01:22:46;11.88;;;8.48;;
60665;SDS011;59128;44.642;21.188;2023-08-30T01:27:47;11.48;;;8.73;;
60665;SDS011;59128;44.642;21.188;2023-08-30T01:30:14;12.40;;;8.50;;
60665;SDS011;59128;44.642;21.188;2023-08-30T01:32:40;14.15;;;9.63;;
60665;SDS011;59128;44.642;21.188;2023-08-30T01:35:07;14.23;;;9.38;;
60665;SDS011;59128;44.642;21.188;2023-08-30T01:37:34;10.70;;;8.93;;
60665;SDS011;59128;44.642;21.188;2023-08-30T01:40:01;10.07;;;8.30;;
60665;SDS011;59128;44.642;21.188;2023-08-30T01:42:29;11.75;;;9.63;;
60665;SDS011;59128;44.642;21.188;2023-08-30T01:44:56;10.57;;;8.57;;
60665;SDS011;59128;44.642;21.188;2023-08-30T01:47:23;11.48;;;8.70;;
60665;SDS011;59128;44.642;21.188;2023-08-30T01:49:50;11.02;;;8.93;;
60665;SDS011;59128;44.642;21.188;2023-08-30T01:52:16;12.15;;;9.05;;
60665;SDS011;59128;44.642;21.188;2023-08-30T01:54:42;10.55;;;8.73;;
60665;SDS011;59128;44.642;21.188;2023-08-30T01:57:09;11.18;;;9.02;;
60665;SDS011;59128;44.642;21.188;2023-08-30T01:59:35;10.18;;;8.75;;
60665;SDS011;59128;44.642;21.188;2023-08-30T02:02:01;10.88;;;9.10;;
60665;SDS011;59128;44.642;21.188;2023-08-30T02:04:29;12.82;;;9.05;;
60665;SDS011;59128;44.642;21.188;2023-08-30T02:11:49;12.73;;;10.13;;
60665;SDS011;59128;44.642;21.188;2023-08-30T02:14:16;12.88;;;10.70;;
60665;SDS011;59128;44.642;21.188;2023-08-30T02:16:45;14.07;;;10.85;;
60665;SDS011;59128;44.642;21.188;2023-08-30T02:19:11;12.03;;;10.17;;
60665;SDS011;59128;44.642;21.188;2023-08-30T02:21:45;12.48;;;10.00;;
60665;SDS011;59128;44.642;21.188;2023-08-30T02:24:11;14.55;;;10.68;;
60665;SDS011;59128;44.642;21.188;2023-08-30T02:26:37;13.75;;;10.40;;
60665;SDS011;59128;44.642;21.188;2023-08-30T02:29:03;13.48;;;10.75;;
60665;SDS011;59128;44.642;21.188;2023-08-30T02:31:30;15.40;;;10.77;;
60665;SDS011;59128;44.642;21.188;2023-08-30T02:33:56;13.90;;;11.00;;
60665;SDS011;59128;44.642;21.188;2023-08-30T02:36:22;15.88;;;11.70;;
60665;SDS011;59128;44.642;21.188;2023-08-30T02:38:48;15.82;;;11.73;;
60665;SDS011;59128;44.642;21.188;2023-08-30T02:41:14;15.50;;;11.88;;
60665;SDS011;59128;44.642;21.188;2023-08-30T02:43:40;15.33;;;10.67;;
60665;SDS011;59128;44.642;21.188;2023-08-30T02:46:06;13.83;;;11.20;;
60665;SDS011;59128;44.642;21.188;2023-08-30T02:48:32;15.35;;;11.68;;
60665;SDS011;59128;44.642;21.188;2023-08-30T02:50:58;13.85;;;11.07;;
60665;SDS011;59128;44.642;21.188;2023-08-30T02:53:24;14.18;;;10.95;;
60665;SDS011;59128;44.642;21.188;2023-08-30T02:55:50;13.83;;;10.60;;
60665;SDS011;59128;44.642;21.188;2023-08-30T02:58:20;12.85;;;10.55;;
60665;SDS011;59128;44.642;21.188;2023-08-30T03:00:46;13.73;;;10.32;;
60665;SDS011;59128;44.642;21.188;2023-08-30T03:03:12;19.25;;;10.50;;
60665;SDS011;59128;44.642;21.188;2023-08-30T03:05:38;14.35;;;10.38;;
60665;SDS011;59128;44.642;21.188;2023-08-30T03:08:05;14.65;;;10.63;;
60665;SDS011;59128;44.642;21.188;2023-08-30T03:10:31;13.80;;;10.10;;
60665;SDS011;59128;44.642;21.188;2023-08-30T03:12:57;15.67;;;11.07;;
60665;SDS011;59128;44.642;21.188;2023-08-30T03:15:23;13.93;;;11.00;;
60665;SDS011;59128;44.642;21.188;2023-08-30T03:17:49;17.75;;;11.48;;
60665;SDS011;59128;44.642;21.188;2023-08-30T03:20:15;13.30;;;10.68;;
60665;SDS011;59128;44.642;21.188;2023-08-30T03:22:41;13.68;;;11.07;;
60665;SDS011;59128;44.642;21.188;2023-08-30T03:25:07;13.27;;;11.20;;
60665;SDS011;59128;44.642;21.188;2023-08-30T03:27:34;12.93;;;10.90;;
60665;SDS011;59128;44.642;21.188;2023-08-30T03:30:03;16.90;;;11.63;;
60665;SDS011;59128;44.642;21.188;2023-08-30T03:32:31;15.50;;;12.00;;
60665;SDS011;59128;44.642;21.188;2023-08-30T03:34:57;19.92;;;12.68;;
60665;SDS011;59128;44.642;21.188;2023-08-30T03:37:23;16.65;;;12.02;;
60665;SDS011;59128;44.642;21.188;2023-08-30T03:39:49;16.42;;;11.25;;
60665;SDS011;59128;44.642;21.188;2023-08-30T03:42:15;13.85;;;10.60;;
60665;SDS011;59128;44.642;21.188;2023-08-30T03:44:41;14.30;;;11.10;;
60665;SDS011;59128;44.642;21.188;2023-08-30T03:47:07;17.38;;;11.27;;
60665;SDS011;59128;44.642;21.188;2023-08-30T03:49:33;15.50;;;11.67;;
60665;SDS011;59128;44.642;21.188;2023-08-30T03:51:59;16.00;;;11.47;;
60665;SDS011;59128;44.642;21.188;2023-08-30T03:54:25;14.82;;;10.82;;
60665;SDS011;59128;44.642;21.188;2023-08-30T03:56:52;15.85;;;10.50;;
60665;SDS011;59128;44.642;21.188;2023-08-30T03:59:18;13.25;;;10.45;;
60665;SDS011;59128;44.642;21.188;2023-08-30T04:01:44;15.35;;;11.20;;
60665;SDS011;59128;44.642;21.188;2023-08-30T04:04:10;14.93;;;10.93;;
60665;SDS011;59128;44.642;21.188;2023-08-30T04:06:36;16.08;;;11.57;;
60665;SDS011;59128;44.642;21.188;2023-08-30T04:09:02;14.85;;;11.70;;
60665;SDS011;59128;44.642;21.188;2023-08-30T04:11:28;13.68;;;10.68;;
60665;SDS011;59128;44.642;21.188;2023-08-30T04:13:54;13.43;;;10.70;;
60665;SDS011;59128;44.642;21.188;2023-08-30T04:16:20;15.65;;;10.52;;
60665;SDS011;59128;44.642;21.188;2023-08-30T04:18:46;15.45;;;11.23;;
60665;SDS011;59128;44.642;21.188;2023-08-30T04:21:12;15.43;;;11.23;;
60665;SDS011;59128;44.642;21.188;2023-08-30T04:23:38;15.18;;;10.70;;
60665;SDS011;59128;44.642;21.188;2023-08-30T04:26:04;14.68;;;10.25;;
60665;SDS011;59128;44.642;21.188;2023-08-30T04:28:30;16.23;;;10.75;;
60665;SDS011;59128;44.642;21.188;2023-08-30T04:30:56;13.13;;;10.00;;
60665;SDS011;59128;44.642;21.188;2023-08-30T04:33:23;14.73;;;10.63;;
60665;SDS011;59128;44.642;21.188;2023-08-30T04:35:52;12.65;;;9.90;;
60665;SDS011;59128;44.642;21.188;2023-08-30T04:38:19;14.43;;;9.75;;
60665;SDS011;59128;44.642;21.188;2023-08-30T04:40:45;12.43;;;9.63;;
60665;SDS011;59128;44.642;21.188;2023-08-30T04:43:11;10.70;;;8.85;;
60665;SDS011;59128;44.642;21.188;2023-08-30T04:45:38;11.95;;;9.15;;
60665;SDS011;59128;44.642;21.188;2023-08-30T04:48:04;11.32;;;8.40;;
60665;SDS011;59128;44.642;21.188;2023-08-30T04:50:30;10.85;;;8.07;;
60665;SDS011;59128;44.642;21.188;2023-08-30T04:52:56;10.82;;;8.20;;
60665;SDS011;59128;44.642;21.188;2023-08-30T04:55:28;11.57;;;8.68;;
60665;SDS011;59128;44.642;21.188;2023-08-30T04:57:54;11.70;;;8.20;;
60665;SDS011;59128;44.642;21.188;2023-08-30T05:00:21;12.27;;;8.47;;
60665;SDS011;59128;44.642;21.188;2023-08-30T05:02:47;13.00;;;8.57;;
60665;SDS011;59128;44.642;21.188;2023-08-30T05:05:13;11.02;;;8.60;;
60665;SDS011;59128;44.642;21.188;2023-08-30T05:07:39;9.55;;;8.40;;
60665;SDS011;59128;44.642;21.188;2023-08-30T05:10:06;9.70;;;8.10;;
60665;SDS011;59128;44.642;21.188;2023-08-30T05:12:35;9.35;;;7.68;;
60665;SDS011;59128;44.642;21.188;2023-08-30T05:15:01;9.13;;;7.40;;
60665;SDS011;59128;44.642;21.188;2023-08-30T05:17:29;10.55;;;7.47;;
60665;SDS011;59128;44.642;21.188;2023-08-30T05:19:55;9.98;;;7.68;;
60665;SDS011;59128;44.642;21.188;2023-08-30T05:22:21;10.52;;;7.70;;
60665;SDS011;59128;44.642;21.188;2023-08-30T05:24:47;10.95;;;7.75;;
60665;SDS011;59128;44.642;21.188;2023-08-30T05:27:13;10.90;;;7.82;;
60665;SDS011;59128;44.642;21.188;2023-08-30T05:29:40;11.10;;;8.45;;
60665;SDS011;59128;44.642;21.188;2023-08-30T05:32:06;12.68;;;8.38;;
60665;SDS011;59128;44.642;21.188;2023-08-30T05:34:32;11.20;;;8.65;;
60665;SDS011;59128;44.642;21.188;2023-08-30T05:36:58;12.85;;;8.57;;
60665;SDS011;59128;44.642;21.188;2023-08-30T05:39:24;12.50;;;9.02;;
60665;SDS011;59128;44.642;21.188;2023-08-30T05:41:50;12.70;;;8.50;;
60665;SDS011;59128;44.642;21.188;2023-08-30T05:44:16;11.63;;;8.90;;
60665;SDS011;59128;44.642;21.188;2023-08-30T05:46:42;12.23;;;8.33;;
60665;SDS011;59128;44.642;21.188;2023-08-30T05:49:08;9.75;;;8.02;;
60665;SDS011;59128;44.642;21.188;2023-08-30T05:51:34;11.80;;;8.35;;
60665;SDS011;59128;44.642;21.188;2023-08-30T05:54:00;15.05;;;9.07;;
60665;SDS011;59128;44.642;21.188;2023-08-30T05:56:27;10.65;;;7.90;;
60665;SDS011;59128;44.642;21.188;2023-08-30T05:58:53;12.23;;;8.13;;
60665;SDS011;59128;44.642;21.188;2023-08-30T06:01:19;13.50;;;8.15;;
60665;SDS011;59128;44.642;21.188;2023-08-30T06:03:45;13.73;;;8.77;;
60665;SDS011;59128;44.642;21.188;2023-08-30T06:06:12;13.50;;;10.00;;
60665;SDS011;59128;44.642;21.188;2023-08-30T06:08:38;13.82;;;10.55;;
60665;SDS011;59128;44.642;21.188;2023-08-30T06:11:04;13.35;;;8.82;;
60665;SDS011;59128;44.642;21.188;2023-08-30T06:13:30;9.45;;;8.23;;
60665;SDS011;59128;44.642;21.188;2023-08-30T06:15:56;10.35;;;8.52;;
60665;SDS011;59128;44.642;21.188;2023-08-30T06:18:22;12.57;;;9.98;;
60665;SDS011;59128;44.642;21.188;2023-08-30T06:20:49;12.48;;;9.98;;
60665;SDS011;59128;44.642;21.188;2023-08-30T06:23:18;15.70;;;9.70;;
60665;SDS011;59128;44.642;21.188;2023-08-30T06:25:45;16.63;;;8.77;;
60665;SDS011;59128;44.642;21.188;2023-08-30T06:28:11;10.43;;;8.63;;
60665;SDS011;59128;44.642;21.188;2023-08-30T06:30:37;11.30;;;8.23;;
60665;SDS011;59128;44.642;21.188;2023-08-30T06:33:03;10.55;;;7.97;;
60665;SDS011;59128;44.642;21.188;2023-08-30T06:35:30;12.02;;;8.57;;
60665;SDS011;59128;44.642;21.188;2023-08-30T06:37:56;12.30;;;9.55;;
60665;SDS011;59128;44.642;21.188;2023-08-30T06:40:22;12.48;;;8.82;;
60665;SDS011;59128;44.642;21.188;2023-08-30T06:42:49;11.85;;;9.25;;
60665;SDS011;59128;44.642;21.188;2023-08-30T06:45:15;14.10;;;9.73;;
60665;SDS011;59128;44.642;21.188;2023-08-30T06:47:41;12.15;;;10.30;;
60665;SDS011;59128;44.642;21.188;2023-08-30T06:50:07;15.85;;;11.20;;
60665;SDS011;59128;44.642;21.188;2023-08-30T06:52:34;12.85;;;10.77;;
60665;SDS011;59128;44.642;21.188;2023-08-30T06:55:01;12.80;;;10.65;;
60665;SDS011;59128;44.642;21.188;2023-08-30T06:57:27;12.55;;;10.63;;
60665;SDS011;59128;44.642;21.188;2023-08-30T06:59:53;13.73;;;10.47;;
60665;SDS011;59128;44.642;21.188;2023-08-30T07:02:19;15.00;;;11.20;;
60665;SDS011;59128;44.642;21.188;2023-08-30T07:04:45;14.47;;;11.37;;
60665;SDS011;59128;44.642;21.188;2023-08-30T07:07:12;12.38;;;11.02;;
60665;SDS011;59128;44.642;21.188;2023-08-30T07:09:39;15.80;;;11.37;;
60665;SDS011;59128;44.642;21.188;2023-08-30T07:12:05;15.23;;;11.73;;
60665;SDS011;59128;44.642;21.188;2023-08-30T07:14:31;14.63;;;11.77;;
60665;SDS011;59128;44.642;21.188;2023-08-30T07:16:57;15.37;;;11.90;;
60665;SDS011;59128;44.642;21.188;2023-08-30T07:19:24;13.10;;;11.68;;
60665;SDS011;59128;44.642;21.188;2023-08-30T07:21:50;17.40;;;12.38;;
60665;SDS011;59128;44.642;21.188;2023-08-30T07:24:16;16.23;;;13.18;;
60665;SDS011;59128;44.642;21.188;2023-08-30T07:26:42;19.92;;;15.32;;
60665;SDS011;59128;44.642;21.188;2023-08-30T07:29:09;20.92;;;13.98;;
60665;SDS011;59128;44.642;21.188;2023-08-30T07:31:35;14.55;;;13.05;;
60665;SDS011;59128;44.642;21.188;2023-08-30T07:34:01;17.13;;;12.90;;
60665;SDS011;59128;44.642;21.188;2023-08-30T07:36:31;17.07;;;12.60;;
60665;SDS011;59128;44.642;21.188;2023-08-30T07:38:57;13.45;;;11.77;;
60665;SDS011;59128;44.642;21.188;2023-08-30T07:41:23;12.85;;;10.40;;
60665;SDS011;59128;44.642;21.188;2023-08-30T07:43:49;11.70;;;10.20;;
60665;SDS011;59128;44.642;21.188;2023-08-30T07:46:15;13.48;;;9.85;;
60665;SDS011;59128;44.642;21.188;2023-08-30T07:48:42;11.43;;;9.35;;
60665;SDS011;59128;44.642;21.188;2023-08-30T07:51:08;10.30;;;9.18;;
60665;SDS011;59128;44.642;21.188;2023-08-30T07:53:34;12.73;;;9.90;;
60665;SDS011;59128;44.642;21.188;2023-08-30T07:56:00;13.50;;;11.35;;
60665;SDS011;59128;44.642;21.188;2023-08-30T07:58:26;13.65;;;10.15;;
60665;SDS011;59128;44.642;21.188;2023-08-30T08:00:52;13.95;;;10.05;;
60665;SDS011;59128;44.642;21.188;2023-08-30T08:03:21;11.48;;;9.27;;
60665;SDS011;59128;44.642;21.188;2023-08-30T08:05:47;11.60;;;9.37;;
60665;SDS011;59128;44.642;21.188;2023-08-30T08:08:14;13.27;;;10.23;;
60665;SDS011;59128;44.642;21.188;2023-08-30T08:10:44;12.23;;;10.82;;
60665;SDS011;59128;44.642;21.188;2023-08-30T08:13:10;12.68;;;10.00;;
60665;SDS011;59128;44.642;21.188;2023-08-30T08:15:38;12.05;;;9.65;;
60665;SDS011;59128;44.642;21.188;2023-08-30T08:18:04;11.98;;;9.15;;
60665;SDS011;59128;44.642;21.188;2023-08-30T08:20:30;10.00;;;9.00;;
60665;SDS011;59128;44.642;21.188;2023-08-30T08:22:56;9.27;;;8.23;;
60665;SDS011;59128;44.642;21.188;2023-08-30T08:25:22;10.18;;;8.32;;
60665;SDS011;59128;44.642;21.188;2023-08-30T08:27:49;11.20;;;8.48;;
60665;SDS011;59128;44.642;21.188;2023-08-30T08:30:16;11.70;;;8.45;;
60665;SDS011;59128;44.642;21.188;2023-08-30T08:32:42;10.13;;;7.82;;
60665;SDS011;59128;44.642;21.188;2023-08-30T08:35:08;12.47;;;9.43;;
60665;SDS011;59128;44.642;21.188;2023-08-30T08:37:34;12.63;;;8.55;;
60665;SDS011;59128;44.642;21.188;2023-08-30T08:40:00;8.38;;;7.38;;
60665;SDS011;59128;44.642;21.188;2023-08-30T08:42:33;9.07;;;7.03;;
60665;SDS011;59128;44.642;21.188;2023-08-30T08:44:59;7.70;;;6.68;;
60665;SDS011;59128;44.642;21.188;2023-08-30T08:47:25;7.43;;;5.90;;
60665;SDS011;59128;44.642;21.188;2023-08-30T08:49:51;6.03;;;4.80;;
60665;SDS011;59128;44.642;21.188;2023-08-30T08:52:17;7.85;;;5.10;;
60665;SDS011;59128;44.642;21.188;2023-08-30T08:54:44;26.88;;;4.43;;
60665;SDS011;59128;44.642;21.188;2023-08-30T08:57:10;8.52;;;4.28;;
60665;SDS011;59128;44.642;21.188;2023-08-30T08:59:36;6.53;;;4.05;;
60665;SDS011;59128;44.642;21.188;2023-08-30T09:02:02;6.55;;;4.18;;
60665;SDS011;59128;44.642;21.188;2023-08-30T09:04:32;5.43;;;4.25;;
60665;SDS011;59128;44.642;21.188;2023-08-30T09:06:58;10.68;;;4.70;;
60665;SDS011;59128;44.642;21.188;2023-08-30T09:09:25;8.45;;;5.60;;
60665;SDS011;59128;44.642;21.188;2023-08-30T09:11:51;7.35;;;5.53;;
60665;SDS011;59128;44.642;21.188;2023-08-30T09:14:18;9.15;;;5.20;;
60665;SDS011;59128;44.642;21.188;2023-08-30T09:16:57;8.48;;;5.43;;
60665;SDS011;59128;44.642;21.188;2023-08-30T09:19:23;7.97;;;5.43;;
60665;SDS011;59128;44.642;21.188;2023-08-30T09:21:50;6.72;;;5.13;;
60665;SDS011;59128;44.642;21.188;2023-08-30T09:24:16;5.80;;;4.65;;
60665;SDS011;59128;44.642;21.188;2023-08-30T09:26:46;6.88;;;4.70;;
60665;SDS011;59128;44.642;21.188;2023-08-30T09:29:12;7.10;;;5.43;;
60665;SDS011;59128;44.642;21.188;2023-08-30T09:31:38;8.57;;;4.78;;
60665;SDS011;59128;44.642;21.188;2023-08-30T09:34:08;8.07;;;4.60;;
60665;SDS011;59128;44.642;21.188;2023-08-30T09:36:36;4.90;;;4.40;;
60665;SDS011;59128;44.642;21.188;2023-08-30T09:39:05;6.97;;;4.85;;
60665;SDS011;59128;44.642;21.188;2023-08-30T09:41:33;7.95;;;5.18;;
60665;SDS011;59128;44.642;21.188;2023-08-30T09:44:00;8.45;;;4.70;;
60665;SDS011;59128;44.642;21.188;2023-08-30T09:46:32;9.68;;;5.10;;
60665;SDS011;59128;44.642;21.188;2023-08-30T09:48:58;7.35;;;4.68;;
60665;SDS011;59128;44.642;21.188;2023-08-30T09:51:24;7.40;;;4.72;;
60665;SDS011;59128;44.642;21.188;2023-08-30T09:53:53;9.80;;;4.93;;
60665;SDS011;59128;44.642;21.188;2023-08-30T09:56:19;6.40;;;4.85;;
60665;SDS011;59128;44.642;21.188;2023-08-30T09:58:47;7.03;;;4.57;;
60665;SDS011;59128;44.642;21.188;2023-08-30T10:01:13;4.72;;;3.60;;
60665;SDS011;59128;44.642;21.188;2023-08-30T10:03:40;4.85;;;3.50;;
60665;SDS011;59128;44.642;21.188;2023-08-30T10:06:07;6.18;;;4.38;;
60665;SDS011;59128;44.642;21.188;2023-08-30T10:08:33;3.83;;;3.38;;
60665;SDS011;59128;44.642;21.188;2023-08-30T10:11:01;7.05;;;4.50;;
60665;SDS011;59128;44.642;21.188;2023-08-30T10:13:28;6.53;;;4.38;;
60665;SDS011;59128;44.642;21.188;2023-08-30T10:15:57;5.60;;;4.05;;
60665;SDS011;59128;44.642;21.188;2023-08-30T10:18:25;5.47;;;4.20;;
60665;SDS011;59128;44.642;21.188;2023-08-30T10:20:54;6.53;;;4.53;;
60665;SDS011;59128;44.642;21.188;2023-08-30T10:23:20;5.88;;;4.30;;
60665;SDS011;59128;44.642;21.188;2023-08-30T10:25:47;7.95;;;4.30;;
60665;SDS011;59128;44.642;21.188;2023-08-30T10:28:14;6.05;;;4.25;;
60665;SDS011;59128;44.642;21.188;2023-08-30T10:30:40;8.77;;;5.15;;
60665;SDS011;59128;44.642;21.188;2023-08-30T10:33:13;5.93;;;4.65;;
60665;SDS011;59128;44.642;21.188;2023-08-30T10:35:47;5.45;;;4.40;;
60665;SDS011;59128;44.642;21.188;2023-08-30T10:38:29;6.57;;;4.57;;
60665;SDS011;59128;44.642;21.188;2023-08-30T10:40:55;8.30;;;4.47;;
60665;SDS011;59128;44.642;21.188;2023-08-30T10:43:28;6.07;;;4.28;;
60665;SDS011;59128;44.642;21.188;2023-08-30T10:45:58;7.25;;;4.93;;
60665;SDS011;59128;44.642;21.188;2023-08-30T10:48:33;6.75;;;4.18;;
60665;SDS011;59128;44.642;21.188;2023-08-30T10:50:59;4.85;;;3.92;;
60665;SDS011;59128;44.642;21.188;2023-08-30T10:53:29;9.48;;;4.82;;
60665;SDS011;59128;44.642;21.188;2023-08-30T10:56:10;8.18;;;4.10;;
60665;SDS011;59128;44.642;21.188;2023-08-30T10:58:43;6.10;;;4.00;;
60665;SDS011;59128;44.642;21.188;2023-08-30T11:01:09;7.35;;;3.65;;
60665;SDS011;59128;44.642;21.188;2023-08-30T11:03:40;5.00;;;3.85;;
60665;SDS011;59128;44.642;21.188;2023-08-30T11:06:07;4.85;;;3.42;;
60665;SDS011;59128;44.642;21.188;2023-08-30T11:08:33;5.07;;;3.22;;
60665;SDS011;59128;44.642;21.188;2023-08-30T11:11:04;5.22;;;3.55;;
60665;SDS011;59128;44.642;21.188;2023-08-30T11:13:30;4.38;;;3.40;;
60665;SDS011;59128;44.642;21.188;2023-08-30T11:16:01;6.47;;;3.47;;
60665;SDS011;59128;44.642;21.188;2023-08-30T11:18:29;6.25;;;3.53;;
60665;SDS011;59128;44.642;21.188;2023-08-30T11:20:59;6.78;;;3.78;;
60665;SDS011;59128;44.642;21.188;2023-08-30T11:23:26;4.10;;;3.70;;
60665;SDS011;59128;44.642;21.188;2023-08-30T11:25:53;4.97;;;3.60;;
60665;SDS011;59128;44.642;21.188;2023-08-30T11:28:25;4.70;;;3.28;;
60665;SDS011;59128;44.642;21.188;2023-08-30T11:30:54;3.90;;;3.50;;
60665;SDS011;59128;44.642;21.188;2023-08-30T11:33:21;4.60;;;2.90;;
60665;SDS011;59128;44.642;21.188;2023-08-30T11:35:48;5.32;;;3.03;;
60665;SDS011;59128;44.642;21.188;2023-08-30T11:38:15;6.20;;;3.38;;
60665;SDS011;59128;44.642;21.188;2023-08-30T11:40:41;4.32;;;3.50;;
60665;SDS011;59128;44.642;21.188;2023-08-30T11:43:07;4.63;;;3.22;;
60665;SDS011;59128;44.642;21.188;2023-08-30T11:45:33;5.75;;;3.53;;
60665;SDS011;59128;44.642;21.188;2023-08-30T11:48:00;4.10;;;3.17;;
60665;SDS011;59128;44.642;21.188;2023-08-30T11:50:26;4.10;;;3.50;;
60665;SDS011;59128;44.642;21.188;2023-08-30T11:52:52;4.15;;;3.00;;
60665;SDS011;59128;44.642;21.188;2023-08-30T11:55:20;4.85;;;3.53;;
60665;SDS011;59128;44.642;21.188;2023-08-30T11:57:50;4.65;;;3.10;;
60665;SDS011;59128;44.642;21.188;2023-08-30T12:00:18;5.70;;;3.67;;
60665;SDS011;59128;44.642;21.188;2023-08-30T12:02:45;6.57;;;4.03;;
60665;SDS011;59128;44.642;21.188;2023-08-30T12:05:12;3.28;;;2.80;;
60665;SDS011;59128;44.642;21.188;2023-08-30T12:07:38;3.08;;;2.78;;
60665;SDS011;59128;44.642;21.188;2023-08-30T12:12:31;4.57;;;3.20;;
60665;SDS011;59128;44.642;21.188;2023-08-30T12:14:57;4.35;;;3.22;;
60665;SDS011;59128;44.642;21.188;2023-08-30T12:17:23;4.32;;;3.08;;
60665;SDS011;59128;44.642;21.188;2023-08-30T12:19:59;7.28;;;3.53;;
60665;SDS011;59128;44.642;21.188;2023-08-30T12:22:41;5.35;;;3.35;;
60665;SDS011;59128;44.642;21.188;2023-08-30T12:27:43;3.97;;;3.38;;
60665;SDS011;59128;44.642;21.188;2023-08-30T12:30:09;5.20;;;4.10;;
60665;SDS011;59128;44.642;21.188;2023-08-30T12:32:35;6.40;;;4.35;;
60665;SDS011;59128;44.642;21.188;2023-08-30T12:35:01;4.57;;;3.75;;
60665;SDS011;59128;44.642;21.188;2023-08-30T12:37:27;5.13;;;3.30;;
60665;SDS011;59128;44.642;21.188;2023-08-30T12:39:53;6.38;;;4.07;;
60665;SDS011;59128;44.642;21.188;2023-08-30T12:42:19;4.57;;;3.83;;
60665;SDS011;59128;44.642;21.188;2023-08-30T12:44:45;7.45;;;4.95;;
60665;SDS011;59128;44.642;21.188;2023-08-30T12:47:11;6.78;;;4.45;;
60665;SDS011;59128;44.642;21.188;2023-08-30T12:49:39;7.20;;;4.55;;
60665;SDS011;59128;44.642;21.188;2023-08-30T12:52:05;5.18;;;4.15;;
60665;SDS011;59128;44.642;21.188;2023-08-30T12:54:32;8.25;;;5.22;;
60665;SDS011;59128;44.642;21.188;2023-08-30T12:56:58;6.78;;;4.55;;
60665;SDS011;59128;44.642;21.188;2023-08-30T12:59:24;6.15;;;4.13;;
60665;SDS011;59128;44.642;21.188;2023-08-30T13:01:50;5.45;;;4.35;;
60665;SDS011;59128;44.642;21.188;2023-08-30T13:04:16;6.65;;;3.90;;
60665;SDS011;59128;44.642;21.188;2023-08-30T13:06:42;8.15;;;5.60;;
60665;SDS011;59128;44.642;21.188;2023-08-30T13:09:08;9.30;;;4.97;;
60665;SDS011;59128;44.642;21.188;2023-08-30T13:11:34;6.97;;;5.72;;
60665;SDS011;59128;44.642;21.188;2023-08-30T13:14:00;6.47;;;5.47;;
60665;SDS011;59128;44.642;21.188;2023-08-30T13:16:26;5.95;;;3.97;;
60665;SDS011;59128;44.642;21.188;2023-08-30T13:18:52;5.70;;;3.80;;
60665;SDS011;59128;44.642;21.188;2023-08-30T13:21:18;5.85;;;3.67;;
60665;SDS011;59128;44.642;21.188;2023-08-30T13:23:44;4.93;;;3.22;;
60665;SDS011;59128;44.642;21.188;2023-08-30T13:26:10;5.55;;;3.90;;
60665;SDS011;59128;44.642;21.188;2023-08-30T13:28:37;5.10;;;4.00;;
60665;SDS011;59128;44.642;21.188;2023-08-30T13:31:03;5.57;;;3.72;;
60665;SDS011;59128;44.642;21.188;2023-08-30T13:33:29;7.63;;;3.92;;
60665;SDS011;59128;44.642;21.188;2023-08-30T13:35:55;7.20;;;3.78;;
60665;SDS011;59128;44.642;21.188;2023-08-30T13:38:21;4.80;;;3.75;;
60665;SDS011;59128;44.642;21.188;2023-08-30T13:40:48;6.65;;;3.83;;
60665;SDS011;59128;44.642;21.188;2023-08-30T13:43:14;5.57;;;3.28;;
60665;SDS011;59128;44.642;21.188;2023-08-30T13:45:40;5.22;;;3.40;;
60665;SDS011;59128;44.642;21.188;2023-08-30T13:48:06;4.97;;;3.70;;
60665;SDS011;59128;44.642;21.188;2023-08-30T13:50:32;4.20;;;3.35;;
60665;SDS011;59128;44.642;21.188;2023-08-30T13:52:58;13.75;;;7.60;;
60665;SDS011;59128;44.642;21.188;2023-08-30T13:55:24;24.77;;;11.38;;
60665;SDS011;59128;44.642;21.188;2023-08-30T13:57:50;16.65;;;10.35;;
60665;SDS011;59128;44.642;21.188;2023-08-30T14:00:16;8.63;;;5.63;;
60665;SDS011;59128;44.642;21.188;2023-08-30T14:02:42;8.00;;;4.72;;
60665;SDS011;59128;44.642;21.188;2023-08-30T14:05:08;6.40;;;4.53;;
60665;SDS011;59128;44.642;21.188;2023-08-30T14:07:35;6.30;;;4.30;;
60665;SDS011;59128;44.642;21.188;2023-08-30T14:10:01;6.05;;;4.28;;
60665;SDS011;59128;44.642;21.188;2023-08-30T14:12:27;8.55;;;4.25;;
60665;SDS011;59128;44.642;21.188;2023-08-30T14:14:53;4.80;;;4.30;;
60665;SDS011;59128;44.642;21.188;2023-08-30T14:17:20;8.57;;;4.88;;
60665;SDS011;59128;44.642;21.188;2023-08-30T14:19:46;5.78;;;4.35;;
60665;SDS011;59128;44.642;21.188;2023-08-30T14:22:12;5.70;;;3.90;;
60665;SDS011;59128;44.642;21.188;2023-08-30T14:24:38;6.10;;;4.45;;
60665;SDS011;59128;44.642;21.188;2023-08-30T14:27:04;6.78;;;4.47;;
60665;SDS011;59128;44.642;21.188;2023-08-30T14:29:30;6.15;;;4.63;;
60665;SDS011;59128;44.642;21.188;2023-08-30T14:31:56;7.55;;;4.75;;
60665;SDS011;59128;44.642;21.188;2023-08-30T14:34:22;7.47;;;4.97;;